Time;durP1;ratioP1;P1;durP2;ratioP2;P2;SDS_P1;SDS_P2;PMS_P1;PMS_P2;Temp;Humidity;BMP_temperature;BMP_pressure;BME280_temperature;BME280_humidity;BME280_pressure;Samples;Min_cycle;Max_cycle;Signal;HPM_P1;HPM_P2
2023/09/14 00:01:22;;;;;;;228.93;86.53;;;;;;;;;;5055166;28;20818;-44
2023/09/14 00:03:48;;;;;;;242.17;91.43;;;;;;;;;;5054930;28;20466;-44
2023/09/14 00:06:14;;;;;;;240.37;90.93;;;;;;;;;;5054938;28;20461;-44
2023/09/14 00:08:40;;;;;;;239.60;88.93;;;;;;;;;;5061418;28;20807;-44
2023/09/14 00:11:06;;;;;;;242.07;89.10;;;;;;;;;;5055037;28;20915;-44
2023/09/14 00:13:32;;;;;;;218.90;83.30;;;;;;;;;;5055928;28;20401;-44
2023/09/14 00:15:58;;;;;;;256.30;102.00;;;;;;;;;;5052860;28;20412;-45
2023/09/14 00:18:24;;;;;;;241.17;88.23;;;;;;;;;;5051444;28;20457;-45
2023/09/14 00:20:52;;;;;;;240.97;88.03;;;;;;;;;;5054645;28;20421;-44
2023/09/14 00:23:19;;;;;;;239.83;86.63;;;;;;;;;;5053052;28;20764;-45
2023/09/14 00:25:45;;;;;;;245.90;91.30;;;;;;;;;;5052079;28;20851;-45
2023/09/14 00:28:11;;;;;;;239.17;86.47;;;;;;;;;;5054474;28;20487;-45
2023/09/14 00:30:37;;;;;;;240.37;90.03;;;;;;;;;;5054626;28;20888;-45
2023/09/14 00:33:03;;;;;;;240.27;88.20;;;;;;;;;;5054441;28;20409;-45
2023/09/14 00:35:30;;;;;;;240.83;90.37;;;;;;;;;;5054284;28;20467;-45
2023/09/14 00:37:56;;;;;;;239.87;88.53;;;;;;;;;;5054152;28;20428;-45
2023/09/14 00:40:21;;;;;;;241.77;89.67;;;;;;;;;;5054409;28;20416;-45
2023/09/14 00:42:48;;;;;;;241.20;86.47;;;;;;;;;;5054275;28;20417;-45
2023/09/14 00:45:19;;;;;;;243.00;92.87;;;;;;;;;;5054203;28;20499;-46
2023/09/14 00:47:46;;;;;;;242.67;90.07;;;;;;;;;;5053815;28;21016;-45
2023/09/14 00:50:15;;;;;;;239.87;87.93;;;;;;;;;;5052753;28;20418;-44
2023/09/14 00:52:41;;;;;;;242.20;89.57;;;;;;;;;;5053946;28;20929;-45
2023/09/14 00:55:08;;;;;;;239.90;90.17;;;;;;;;;;5054001;28;20540;-44
2023/09/14 00:57:34;;;;;;;240.53;88.43;;;;;;;;;;5047912;28;20820;-45
2023/09/14 01:00:00;;;;;;;241.60;89.60;;;;;;;;;;5048699;28;20421;-45
2023/09/14 01:02:27;;;;;;;242.17;89.80;;;;;;;;;;5046373;28;20414;-45
2023/09/14 01:04:53;;;;;;;243.47;90.40;;;;;;;;;;5053267;28;21002;-44
2023/09/14 01:07:19;;;;;;;241.47;92.37;;;;;;;;;;5053309;28;20773;-45
2023/09/14 01:09:46;;;;;;;240.27;91.97;;;;;;;;;;5053557;28;20431;-45
2023/09/14 01:12:14;;;;;;;240.03;85.57;;;;;;;;;;5052914;28;20471;-45
2023/09/14 01:15:03;;;;;;;234.47;86.13;;;;;;;;;;5053529;28;20409;-45
2023/09/14 01:17:55;;;;;;;240.70;86.57;;;;;;;;;;5047593;28;20973;-45
2023/09/14 01:20:34;;;;;;;238.57;88.00;;;;;;;;;;5041281;28;20774;-45
2023/09/14 01:23:10;;;;;;;240.73;92.73;;;;;;;;;;5053666;28;20466;-45
2023/09/14 01:25:47;;;;;;;237.83;85.87;;;;;;;;;;5055218;28;20460;-46
2023/09/14 01:28:14;;;;;;;240.87;88.93;;;;;;;;;;5053219;28;20425;-45
2023/09/14 01:30:41;;;;;;;241.80;89.20;;;;;;;;;;5053253;28;20412;-46
2023/09/14 01:33:09;;;;;;;239.40;86.83;;;;;;;;;;5060086;28;20420;-45
2023/09/14 01:35:39;;;;;;;239.93;84.80;;;;;;;;;;5053368;28;20420;-45
2023/09/14 01:38:06;;;;;;;238.67;85.67;;;;;;;;;;5046890;28;20495;-45
2023/09/14 01:40:33;;;;;;;241.33;89.50;;;;;;;;;;5055901;28;20409;-45
2023/09/14 01:43:00;;;;;;;242.17;89.70;;;;;;;;;;5053558;28;20426;-45
2023/09/14 01:45:26;;;;;;;244.10;94.63;;;;;;;;;;5058030;28;20463;-45
2023/09/14 01:47:53;;;;;;;239.77;88.90;;;;;;;;;;5059651;28;20430;-45
2023/09/14 01:50:19;;;;;;;238.17;85.43;;;;;;;;;;5061361;28;20795;-45
2023/09/14 01:52:46;;;;;;;243.07;91.17;;;;;;;;;;5052893;28;20432;-46
2023/09/14 01:55:12;;;;;;;239.97;88.90;;;;;;;;;;5056689;28;20516;-45
2023/09/14 01:57:38;;;;;;;223.13;82.00;;;;;;;;;;5057420;28;20415;-45
2023/09/14 02:00:05;;;;;;;236.67;85.20;;;;;;;;;;5055142;28;20458;-45
2023/09/14 02:02:30;;;;;;;239.27;88.00;;;;;;;;;;5057274;28;20405;-45
2023/09/14 02:04:56;;;;;;;237.07;87.97;;;;;;;;;;5060827;28;20631;-45
2023/09/14 02:07:22;;;;;;;239.90;86.10;;;;;;;;;;5050947;28;20421;-44
2023/09/14 02:09:50;;;;;;;240.43;88.77;;;;;;;;;;5055861;28;20474;-45
2023/09/14 02:12:17;;;;;;;239.97;85.97;;;;;;;;;;5057932;28;20503;-45
2023/09/14 02:14:43;;;;;;;239.33;87.17;;;;;;;;;;5052493;28;20499;-44
2023/09/14 02:17:09;;;;;;;246.00;92.00;;;;;;;;;;5056685;28;20496;-45
2023/09/14 02:19:35;;;;;;;239.07;87.60;;;;;;;;;;5056309;28;20436;-45
2023/09/14 02:22:00;;;;;;;241.27;85.67;;;;;;;;;;5052363;28;20432;-45
2023/09/14 02:24:26;;;;;;;238.57;83.60;;;;;;;;;;5055482;28;20453;-45
2023/09/14 02:26:54;;;;;;;234.37;87.80;;;;;;;;;;5057003;28;20417;-45
2023/09/14 02:29:20;;;;;;;228.20;83.63;;;;;;;;;;5058449;28;20437;-45
2023/09/14 02:31:46;;;;;;;236.57;86.07;;;;;;;;;;5060539;28;20464;-45
2023/09/14 02:34:12;;;;;;;239.57;87.63;;;;;;;;;;5052189;28;20410;-45
2023/09/14 02:36:38;;;;;;;240.27;87.03;;;;;;;;;;5055257;28;20415;-45
2023/09/14 02:39:04;;;;;;;241.57;89.53;;;;;;;;;;5052089;28;20428;-46
2023/09/14 02:41:30;;;;;;;247.40;97.67;;;;;;;;;;5056600;28;20485;-44
2023/09/14 02:43:56;;;;;;;242.37;95.67;;;;;;;;;;5058403;28;21115;-45
2023/09/14 02:46:22;;;;;;;242.10;88.43;;;;;;;;;;5051942;28;20461;-45
2023/09/14 02:48:48;;;;;;;247.47;89.83;;;;;;;;;;5050275;28;20440;-45
2023/09/14 02:51:14;;;;;;;244.07;89.17;;;;;;;;;;5054934;28;20429;-44
2023/09/14 02:53:40;;;;;;;243.90;89.67;;;;;;;;;;5056545;28;20416;-45
2023/09/14 02:56:09;;;;;;;230.50;83.93;;;;;;;;;;5051777;28;20413;-44
2023/09/14 02:58:35;;;;;;;249.57;91.47;;;;;;;;;;5051494;28;20455;-45
2023/09/14 03:01:11;;;;;;;245.13;89.97;;;;;;;;;;5060242;28;20436;-45
2023/09/14 03:03:38;;;;;;;249.57;90.00;;;;;;;;;;5051705;28;20417;-44
2023/09/14 03:06:04;;;;;;;248.77;92.13;;;;;;;;;;5049651;28;20460;-44
2023/09/14 03:08:30;;;;;;;249.70;88.13;;;;;;;;;;5056036;28;20455;-44
2023/09/14 03:10:56;;;;;;;246.13;86.77;;;;;;;;;;5057939;28;20415;-44
2023/09/14 03:13:22;;;;;;;251.00;90.50;;;;;;;;;;5045925;28;20429;-44
2023/09/14 03:15:55;;;;;;;248.00;89.77;;;;;;;;;;5051534;28;20420;-44
2023/09/14 03:18:22;;;;;;;237.73;87.23;;;;;;;;;;5051241;28;20435;-45
2023/09/14 03:20:50;;;;;;;241.00;87.07;;;;;;;;;;5051437;28;20420;-44
2023/09/14 03:23:16;;;;;;;241.17;85.63;;;;;;;;;;5051642;28;20773;-45
2023/09/14 03:25:42;;;;;;;241.23;85.53;;;;;;;;;;5051352;28;20461;-44
2023/09/14 03:28:08;;;;;;;240.57;86.00;;;;;;;;;;5051167;28;20964;-44
2023/09/14 03:30:38;;;;;;;245.57;90.83;;;;;;;;;;5051588;28;20401;-44
2023/09/14 03:33:04;;;;;;;240.87;88.77;;;;;;;;;;5049913;28;20421;-45
2023/09/14 03:35:30;;;;;;;244.20;90.97;;;;;;;;;;5054444;28;20424;-45
2023/09/14 03:37:56;;;;;;;241.67;88.97;;;;;;;;;;5048114;28;20457;-44
2023/09/14 03:40:22;;;;;;;244.00;88.80;;;;;;;;;;5055459;28;20415;-45
2023/09/14 03:42:49;;;;;;;246.77;96.67;;;;;;;;;;5055593;28;20410;-45
2023/09/14 03:45:15;;;;;;;245.87;91.63;;;;;;;;;;5055239;28;20464;-45
2023/09/14 03:47:41;;;;;;;241.77;86.57;;;;;;;;;;5049669;28;20774;-45
2023/09/14 03:50:08;;;;;;;247.60;92.63;;;;;;;;;;5055248;28;20486;-45
2023/09/14 03:52:35;;;;;;;246.00;89.03;;;;;;;;;;5055220;28;20431;-44
2023/09/14 03:55:01;;;;;;;241.00;86.17;;;;;;;;;;5050733;28;20420;-45
2023/09/14 03:57:27;;;;;;;247.23;95.50;;;;;;;;;;5050239;28;20422;-45
2023/09/14 03:59:54;;;;;;;246.37;93.87;;;;;;;;;;5053639;28;20414;-44
2023/09/14 04:02:20;;;;;;;245.67;88.87;;;;;;;;;;5055237;28;20442;-45
2023/09/14 04:04:46;;;;;;;245.30;92.83;;;;;;;;;;5053580;28;20460;-45
2023/09/14 04:07:12;;;;;;;250.73;96.03;;;;;;;;;;5054929;28;20420;-45
2023/09/14 04:09:38;;;;;;;244.47;87.87;;;;;;;;;;5054796;28;20429;-45
2023/09/14 04:12:04;;;;;;;242.50;89.67;;;;;;;;;;5054965;28;20775;-45
2023/09/14 04:14:30;;;;;;;235.13;93.03;;;;;;;;;;5054950;28;20419;-45
2023/09/14 04:16:57;;;;;;;241.27;90.17;;;;;;;;;;5053648;28;20949;-45
2023/09/14 04:19:26;;;;;;;246.03;92.07;;;;;;;;;;5054545;28;20452;-45
2023/09/14 04:21:52;;;;;;;245.37;90.20;;;;;;;;;;5054811;28;20825;-45
2023/09/14 04:24:19;;;;;;;242.37;87.17;;;;;;;;;;5054820;28;20441;-45
2023/09/14 04:26:45;;;;;;;240.33;90.60;;;;;;;;;;5054523;28;20410;-45
2023/09/14 04:29:11;;;;;;;225.50;87.73;;;;;;;;;;5054472;28;20809;-45
2023/09/14 04:31:37;;;;;;;242.17;90.33;;;;;;;;;;5053581;28;20413;-45
2023/09/14 04:34:04;;;;;;;244.57;92.90;;;;;;;;;;5051615;28;20527;-44
2023/09/14 04:36:31;;;;;;;243.80;93.27;;;;;;;;;;5054475;28;20419;-45
2023/09/14 04:38:57;;;;;;;246.97;95.70;;;;;;;;;;5054155;28;20421;-44
2023/09/14 04:41:23;;;;;;;243.20;88.60;;;;;;;;;;5054384;28;20405;-45
2023/09/14 04:43:49;;;;;;;245.57;90.10;;;;;;;;;;5054270;28;20431;-45
2023/09/14 04:46:15;;;;;;;249.23;96.23;;;;;;;;;;5053165;28;20458;-46
2023/09/14 04:48:42;;;;;;;242.20;93.07;;;;;;;;;;5053804;28;20439;-45
2023/09/14 04:51:08;;;;;;;247.00;93.80;;;;;;;;;;5054113;28;20916;-45
2023/09/14 04:53:34;;;;;;;246.67;93.67;;;;;;;;;;5054077;28;20416;-45
2023/09/14 04:56:00;;;;;;;246.20;91.87;;;;;;;;;;5054047;28;20407;-44
2023/09/14 04:58:26;;;;;;;245.30;91.33;;;;;;;;;;5054026;28;20448;-45
2023/09/14 05:00:52;;;;;;;244.70;93.00;;;;;;;;;;5052873;28;20913;-45
2023/09/14 05:03:19;;;;;;;243.87;88.80;;;;;;;;;;5053958;28;20420;-45
2023/09/14 05:05:50;;;;;;;243.67;90.87;;;;;;;;;;5053889;28;20472;-45
2023/09/14 05:08:17;;;;;;;243.40;94.40;;;;;;;;;;5053776;28;20432;-44
2023/09/14 05:10:43;;;;;;;244.73;93.47;;;;;;;;;;5053832;28;20419;-45
2023/09/14 05:13:08;;;;;;;246.63;94.17;;;;;;;;;;5052860;28;20419;-45
2023/09/14 05:15:34;;;;;;;246.73;93.47;;;;;;;;;;5052013;28;20817;-45
2023/09/14 05:18:00;;;;;;;245.60;90.67;;;;;;;;;;5053380;28;20425;-44
2023/09/14 05:20:26;;;;;;;243.03;89.70;;;;;;;;;;5053853;28;20913;-45
2023/09/14 05:22:52;;;;;;;236.77;92.13;;;;;;;;;;5053718;28;20489;-45
2023/09/14 05:25:20;;;;;;;243.67;94.20;;;;;;;;;;5053361;28;20492;-45
2023/09/14 05:27:46;;;;;;;239.70;91.73;;;;;;;;;;5053243;28;20516;-44
2023/09/14 05:30:12;;;;;;;247.57;95.43;;;;;;;;;;5053453;28;20943;-45
2023/09/14 05:32:39;;;;;;;247.80;95.07;;;;;;;;;;5053453;28;20402;-45
2023/09/14 05:35:06;;;;;;;243.17;88.03;;;;;;;;;;5061308;28;20758;-45
2023/09/14 05:37:33;;;;;;;253.67;99.07;;;;;;;;;;5052857;28;20436;-44
2023/09/14 05:39:59;;;;;;;246.47;93.50;;;;;;;;;;5056253;28;20424;-45
2023/09/14 05:42:25;;;;;;;245.10;95.50;;;;;;;;;;5057947;28;20417;-45
2023/09/14 05:44:51;;;;;;;252.17;101.87;;;;;;;;;;5059385;28;20546;-45
2023/09/14 05:47:17;;;;;;;251.90;101.37;;;;;;;;;;5053058;28;20643;-45
2023/09/14 05:49:45;;;;;;;247.77;98.77;;;;;;;;;;5051766;28;20421;-45
2023/09/14 05:52:10;;;;;;;248.03;95.60;;;;;;;;;;5052916;28;20448;-45
2023/09/14 05:54:36;;;;;;;243.93;94.73;;;;;;;;;;5055893;28;20896;-45
2023/09/14 05:57:03;;;;;;;248.13;94.83;;;;;;;;;;5047704;28;20410;-45
2023/09/14 05:59:29;;;;;;;250.37;97.37;;;;;;;;;;5059057;28;20441;-45
2023/09/14 06:01:55;;;;;;;247.47;97.30;;;;;;;;;;5052863;28;20413;-45
2023/09/14 06:04:21;;;;;;;248.10;95.40;;;;;;;;;;5051467;28;20423;-45
2023/09/14 06:06:47;;;;;;;246.57;95.17;;;;;;;;;;5055539;28;20491;-45
2023/09/14 06:09:14;;;;;;;244.10;93.13;;;;;;;;;;5053736;28;20425;-45
2023/09/14 06:11:41;;;;;;;247.20;95.73;;;;;;;;;;5055731;28;20400;-44
2023/09/14 06:14:07;;;;;;;243.57;95.90;;;;;;;;;;5058605;28;20755;-45
2023/09/14 06:16:33;;;;;;;248.10;96.00;;;;;;;;;;5052670;28;20784;-45
2023/09/14 06:18:59;;;;;;;243.20;94.30;;;;;;;;;;5052710;28;20523;-45
2023/09/14 06:21:26;;;;;;;250.77;96.80;;;;;;;;;;5055245;28;20409;-45
2023/09/14 06:23:52;;;;;;;251.77;100.90;;;;;;;;;;5056925;28;20404;-45
2023/09/14 06:26:18;;;;;;;247.97;93.47;;;;;;;;;;5056607;28;20460;-45
2023/09/14 06:28:44;;;;;;;245.53;91.67;;;;;;;;;;5054492;28;20428;-45
2023/09/14 06:31:10;;;;;;;258.50;102.57;;;;;;;;;;5050875;28;20446;-45
2023/09/14 06:33:36;;;;;;;252.93;101.00;;;;;;;;;;5046589;28;20459;-45
2023/09/14 06:36:02;;;;;;;251.57;98.83;;;;;;;;;;5054843;28;20412;-45
2023/09/14 06:38:28;;;;;;;253.37;102.73;;;;;;;;;;5054885;28;20453;-45
2023/09/14 06:40:55;;;;;;;249.17;97.53;;;;;;;;;;5057839;28;20899;-45
2023/09/14 06:43:21;;;;;;;250.60;99.67;;;;;;;;;;5051964;28;20424;-45
2023/09/14 06:45:47;;;;;;;256.03;102.83;;;;;;;;;;5050056;28;20453;-45
2023/09/14 06:48:13;;;;;;;249.67;99.97;;;;;;;;;;5051887;28;20422;-45
2023/09/14 06:50:39;;;;;;;258.47;104.60;;;;;;;;;;5049212;28;20504;-45
2023/09/14 06:53:05;;;;;;;252.43;100.90;;;;;;;;;;5047601;28;20433;-45
2023/09/14 06:55:30;;;;;;;249.47;97.20;;;;;;;;;;5051913;28;20422;-45
2023/09/14 06:57:56;;;;;;;249.80;97.10;;;;;;;;;;5047750;28;20436;-45
2023/09/14 07:00:22;;;;;;;250.87;95.40;;;;;;;;;;5051867;28;20445;-45
2023/09/14 07:02:48;;;;;;;249.10;94.70;;;;;;;;;;5048364;28;20430;-45
2023/09/14 07:05:14;;;;;;;248.70;94.93;;;;;;;;;;5046698;28;20461;-45
2023/09/14 07:07:41;;;;;;;251.77;97.90;;;;;;;;;;5051266;28;20408;-46
2023/09/14 07:10:08;;;;;;;245.17;95.83;;;;;;;;;;5046900;28;20820;-45
2023/09/14 07:12:35;;;;;;;250.57;99.77;;;;;;;;;;5050707;28;20408;-45
2023/09/14 07:15:01;;;;;;;253.47;101.13;;;;;;;;;;5051492;28;20409;-45
2023/09/14 07:17:27;;;;;;;251.70;100.53;;;;;;;;;;5051377;28;20411;-45
2023/09/14 07:19:53;;;;;;;250.00;95.70;;;;;;;;;;5051420;28;20407;-46
2023/09/14 07:22:19;;;;;;;253.47;101.30;;;;;;;;;;5045024;28;20560;-45
2023/09/14 07:24:46;;;;;;;249.33;97.10;;;;;;;;;;5051440;28;20455;-45
2023/09/14 07:27:12;;;;;;;256.27;101.73;;;;;;;;;;5049898;28;20440;-45
2023/09/14 07:29:38;;;;;;;256.03;107.50;;;;;;;;;;5051490;28;20517;-46
2023/09/14 07:32:04;;;;;;;255.80;103.57;;;;;;;;;;5051479;28;20972;-45
2023/09/14 07:34:31;;;;;;;258.77;105.53;;;;;;;;;;5051528;28;20412;-45
2023/09/14 07:36:57;;;;;;;249.87;98.57;;;;;;;;;;5051292;28;20417;-45
2023/09/14 07:39:23;;;;;;;257.27;101.57;;;;;;;;;;5051316;28;20475;-45
2023/09/14 07:41:49;;;;;;;261.67;109.57;;;;;;;;;;5049850;28;20417;-45
2023/09/14 07:44:14;;;;;;;255.03;100.63;;;;;;;;;;5051116;28;20420;-45
2023/09/14 07:46:40;;;;;;;258.33;105.97;;;;;;;;;;5051260;28;20432;-45
2023/09/14 07:49:06;;;;;;;248.00;98.90;;;;;;;;;;5051274;28;20981;-45
2023/09/14 07:51:33;;;;;;;258.63;106.30;;;;;;;;;;5051317;28;20422;-45
2023/09/14 07:54:00;;;;;;;259.63;106.40;;;;;;;;;;5051029;28;20432;-45
2023/09/14 07:56:26;;;;;;;258.37;103.23;;;;;;;;;;5049785;28;20415;-45
2023/09/14 07:58:53;;;;;;;262.97;110.60;;;;;;;;;;5047763;28;20464;-45
2023/09/14 08:01:19;;;;;;;258.83;106.17;;;;;;;;;;5046596;28;20501;-45
2023/09/14 08:03:45;;;;;;;258.77;104.30;;;;;;;;;;5044867;28;20464;-46
2023/09/14 08:06:11;;;;;;;263.07;113.90;;;;;;;;;;5051092;28;20497;-45
2023/09/14 08:08:37;;;;;;;262.97;111.80;;;;;;;;;;5049658;28;20789;-45
2023/09/14 08:11:04;;;;;;;264.80;117.13;;;;;;;;;;5051227;28;20404;-47
2023/09/14 08:13:30;;;;;;;266.23;119.10;;;;;;;;;;5051031;28;20408;-45
2023/09/14 08:15:56;;;;;;;264.57;117.20;;;;;;;;;;5051075;28;20413;-46
2023/09/14 08:18:22;;;;;;;261.50;108.77;;;;;;;;;;5050765;28;20434;-45
2023/09/14 08:20:48;;;;;;;263.47;113.87;;;;;;;;;;5052971;28;20499;-46
2023/09/14 08:23:15;;;;;;;263.03;117.60;;;;;;;;;;5053457;28;20535;-45
2023/09/14 08:25:46;;;;;;;263.07;119.40;;;;;;;;;;5054471;28;20448;-45
2023/09/14 08:28:15;;;;;;;261.70;115.70;;;;;;;;;;5054378;28;20559;-46
2023/09/14 08:30:41;;;;;;;258.30;112.27;;;;;;;;;;5054655;28;20459;-45
2023/09/14 08:33:07;;;;;;;270.07;123.37;;;;;;;;;;5060222;28;20490;-45
2023/09/14 08:35:34;;;;;;;255.03;112.37;;;;;;;;;;5060822;28;20484;-45
2023/09/14 08:38:04;;;;;;;254.13;112.57;;;;;;;;;;5054319;28;20478;-45
2023/09/14 08:40:30;;;;;;;263.00;123.27;;;;;;;;;;5056268;28;20467;-45
2023/09/14 08:42:57;;;;;;;256.97;114.17;;;;;;;;;;5055618;28;20465;-45
2023/09/14 08:45:29;;;;;;;261.17;125.47;;;;;;;;;;5058749;28;20459;-46
2023/09/14 08:47:56;;;;;;;256.83;117.40;;;;;;;;;;5059941;28;20458;-45
2023/09/14 08:50:26;;;;;;;260.63;125.33;;;;;;;;;;5061930;28;20492;-45
2023/09/14 08:52:52;;;;;;;256.73;123.53;;;;;;;;;;5054133;28;20907;-46
2023/09/14 08:55:18;;;;;;;258.80;125.20;;;;;;;;;;5056694;28;20412;-45
2023/09/14 08:57:45;;;;;;;256.87;122.00;;;;;;;;;;5058058;28;20915;-45
2023/09/14 09:00:15;;;;;;;255.57;121.67;;;;;;;;;;5056330;28;20462;-45
2023/09/14 09:02:45;;;;;;;254.07;117.03;;;;;;;;;;5056670;28;20465;-45
2023/09/14 09:05:12;;;;;;;252.57;112.07;;;;;;;;;;5046958;28;20834;-46
2023/09/14 09:07:39;;;;;;;256.37;115.67;;;;;;;;;;5053605;28;20414;-45
2023/09/14 09:10:06;;;;;;;252.30;112.87;;;;;;;;;;5053959;28;20412;-45
2023/09/14 09:12:32;;;;;;;254.43;117.63;;;;;;;;;;5054005;28;20935;-45
2023/09/14 09:14:58;;;;;;;253.50;113.67;;;;;;;;;;5047980;28;20489;-45
2023/09/14 09:17:24;;;;;;;258.03;116.17;;;;;;;;;;5058153;28;20798;-45
2023/09/14 09:19:52;;;;;;;250.83;106.97;;;;;;;;;;5055449;28;20928;-45
2023/09/14 09:22:18;;;;;;;249.97;110.27;;;;;;;;;;5053811;28;20520;-45
2023/09/14 09:24:44;;;;;;;246.17;102.13;;;;;;;;;;5056002;28;20547;-45
2023/09/14 09:27:28;;;;;;;252.17;106.83;;;;;;;;;;5056791;28;20421;-45
2023/09/14 09:29:58;;;;;;;250.17;105.53;;;;;;;;;;5069961;28;20890;-45
2023/09/14 09:32:24;;;;;;;252.07;107.03;;;;;;;;;;5058738;28;20421;-46
2023/09/14 09:34:50;;;;;;;251.53;107.87;;;;;;;;;;5064520;28;20516;-45
2023/09/14 09:37:16;;;;;;;255.20;110.20;;;;;;;;;;5057839;28;20915;-45
2023/09/14 09:39:43;;;;;;;251.13;106.50;;;;;;;;;;5038264;28;20444;-45
2023/09/14 09:42:11;;;;;;;249.80;103.40;;;;;;;;;;5055527;28;20495;-45
2023/09/14 09:44:38;;;;;;;249.43;105.00;;;;;;;;;;5073355;28;20456;-45
2023/09/14 09:47:04;;;;;;;255.53;112.33;;;;;;;;;;5034335;28;20503;-45
2023/09/14 09:49:31;;;;;;;252.47;106.03;;;;;;;;;;5049442;28;20432;-45
2023/09/14 09:51:57;;;;;;;254.43;107.70;;;;;;;;;;5046405;28;20921;-46
2023/09/14 09:54:24;;;;;;;251.63;104.23;;;;;;;;;;5047940;28;20416;-44
2023/09/14 09:56:51;;;;;;;253.70;108.43;;;;;;;;;;5060472;28;20409;-45
2023/09/14 09:59:17;;;;;;;252.83;106.83;;;;;;;;;;5068208;28;20515;-45
2023/09/14 10:01:47;;;;;;;252.57;107.30;;;;;;;;;;5052830;28;20404;-44
2023/09/14 10:04:14;;;;;;;252.03;105.43;;;;;;;;;;5053181;28;20401;-45
2023/09/14 10:06:41;;;;;;;255.67;108.27;;;;;;;;;;5052874;28;20478;-45
2023/09/14 10:09:10;;;;;;;252.93;104.90;;;;;;;;;;5052299;28;20782;-44
2023/09/14 10:11:37;;;;;;;258.97;111.07;;;;;;;;;;5038538;28;20447;-45
2023/09/14 10:14:03;;;;;;;257.07;107.40;;;;;;;;;;5047765;28;20467;-45
2023/09/14 10:16:30;;;;;;;255.43;104.43;;;;;;;;;;5059748;28;20493;-45
2023/09/14 10:18:57;;;;;;;257.70;106.60;;;;;;;;;;5066490;28;20443;-45
2023/09/14 10:21:24;;;;;;;257.03;108.67;;;;;;;;;;5054625;28;20401;-45
2023/09/14 10:23:51;;;;;;;254.27;103.60;;;;;;;;;;5072449;28;20401;-45
2023/09/14 10:26:17;;;;;;;255.30;107.77;;;;;;;;;;5053595;28;20459;-45
2023/09/14 10:28:43;;;;;;;256.70;111.60;;;;;;;;;;5068330;28;20425;-45
2023/09/14 10:31:11;;;;;;;249.80;101.90;;;;;;;;;;5059468;28;20404;-45
2023/09/14 10:33:38;;;;;;;252.67;107.20;;;;;;;;;;5062658;28;20441;-44
2023/09/14 10:36:04;;;;;;;254.60;108.27;;;;;;;;;;5064943;28;20825;-45
2023/09/14 10:38:34;;;;;;;255.63;109.50;;;;;;;;;;5056706;28;20525;-45
2023/09/14 10:41:00;;;;;;;256.60;112.57;;;;;;;;;;5060718;28;20406;-45
2023/09/14 10:43:26;;;;;;;254.77;110.37;;;;;;;;;;5052030;28;20459;-45
2023/09/14 10:45:58;;;;;;;252.97;109.70;;;;;;;;;;5051882;28;20515;-45
2023/09/14 10:48:29;;;;;;;251.30;104.57;;;;;;;;;;5052834;28;20483;-46
2023/09/14 10:50:55;;;;;;;257.43;115.13;;;;;;;;;;5066548;28;20404;-45
2023/09/14 10:53:22;;;;;;;258.43;115.90;;;;;;;;;;5049299;28;20411;-45
2023/09/14 10:55:48;;;;;;;258.07;117.53;;;;;;;;;;5040936;28;20409;-45
2023/09/14 10:58:16;;;;;;;254.47;114.20;;;;;;;;;;5057440;28;20795;-45
2023/09/14 11:00:45;;;;;;;256.67;119.77;;;;;;;;;;5069191;28;20403;-45
2023/09/14 11:03:13;;;;;;;255.93;118.50;;;;;;;;;;5052039;28;20405;-45
2023/09/14 11:05:40;;;;;;;251.77;113.87;;;;;;;;;;5071729;28;20445;-45
2023/09/14 11:08:07;;;;;;;254.07;117.67;;;;;;;;;;5053953;28;20794;-45
2023/09/14 11:10:39;;;;;;;250.97;113.67;;;;;;;;;;5051825;28;20420;-44
2023/09/14 11:13:20;;;;;;;249.87;111.10;;;;;;;;;;5044847;28;20411;-44
2023/09/14 11:15:47;;;;;;;249.67;114.10;;;;;;;;;;5051450;28;20482;-45
2023/09/14 11:18:18;;;;;;;251.77;115.03;;;;;;;;;;5055146;28;20964;-45
2023/09/14 11:20:46;;;;;;;250.40;110.43;;;;;;;;;;5056962;28;20923;-44
2023/09/14 11:23:12;;;;;;;251.40;115.63;;;;;;;;;;5055063;28;20408;-45
2023/09/14 11:25:41;;;;;;;247.77;107.67;;;;;;;;;;5054212;28;20461;-46
2023/09/14 11:28:21;;;;;;;249.33;109.40;;;;;;;;;;5051451;28;20428;-45
2023/09/14 11:30:50;;;;;;;251.73;111.97;;;;;;;;;;5053444;28;20405;-45
2023/09/14 11:33:16;;;;;;;250.17;111.80;;;;;;;;;;5055328;28;20417;-45
2023/09/14 11:35:47;;;;;;;251.90;113.13;;;;;;;;;;5051512;28;20420;-45
2023/09/14 11:38:16;;;;;;;251.87;113.37;;;;;;;;;;5058196;28;20879;-45
2023/09/14 11:40:43;;;;;;;252.67;115.87;;;;;;;;;;5051359;28;20413;-45
2023/09/14 11:43:21;;;;;;;252.43;118.23;;;;;;;;;;5053432;28;20441;-46
2023/09/14 11:45:52;;;;;;;254.07;118.33;;;;;;;;;;5055141;28;20459;-45
2023/09/14 11:48:18;;;;;;;255.93;122.07;;;;;;;;;;5066266;28;20470;-45
2023/09/14 11:50:45;;;;;;;254.47;122.70;;;;;;;;;;5031610;28;20925;-45
2023/09/14 11:53:12;;;;;;;252.77;122.03;;;;;;;;;;5035930;28;20469;-45
2023/09/14 11:55:39;;;;;;;253.20;117.93;;;;;;;;;;5069620;28;20927;-45
2023/09/14 11:58:06;;;;;;;253.10;122.20;;;;;;;;;;5059047;28;20472;-45
2023/09/14 12:00:39;;;;;;;251.33;118.60;;;;;;;;;;5058747;28;20444;-45
2023/09/14 12:03:06;;;;;;;256.43;121.50;;;;;;;;;;5052045;28;20409;-45
2023/09/14 12:05:32;;;;;;;253.10;120.87;;;;;;;;;;5054871;28;20514;-45
2023/09/14 12:07:58;;;;;;;249.80;118.40;;;;;;;;;;5054602;28;20437;-45
2023/09/14 12:10:25;;;;;;;252.90;121.87;;;;;;;;;;5054938;28;20807;-45
2023/09/14 12:12:51;;;;;;;250.80;117.80;;;;;;;;;;5055001;28;20784;-45
2023/09/14 12:15:18;;;;;;;250.13;115.33;;;;;;;;;;5055957;28;20413;-45
2023/09/14 12:17:49;;;;;;;253.07;114.70;;;;;;;;;;5054569;28;20412;-45
2023/09/14 12:20:15;;;;;;;252.23;118.93;;;;;;;;;;5061763;28;20496;-46
2023/09/14 12:22:41;;;;;;;249.20;112.60;;;;;;;;;;5054879;28;20504;-45
2023/09/14 12:25:07;;;;;;;250.87;113.90;;;;;;;;;;5056149;28;20468;-45
2023/09/14 12:27:35;;;;;;;253.20;116.07;;;;;;;;;;5057724;28;20766;-45
2023/09/14 12:30:03;;;;;;;249.73;110.60;;;;;;;;;;5055194;28;20453;-45
2023/09/14 12:32:29;;;;;;;253.20;115.63;;;;;;;;;;5054682;28;20767;-45
2023/09/14 12:34:56;;;;;;;253.33;113.97;;;;;;;;;;5061202;28;20753;-46
2023/09/14 12:37:23;;;;;;;249.97;111.63;;;;;;;;;;5055232;28;20492;-45
2023/09/14 12:39:51;;;;;;;252.33;116.40;;;;;;;;;;5056073;28;20460;-46
2023/09/14 12:42:18;;;;;;;250.43;113.97;;;;;;;;;;5057902;28;20417;-46
2023/09/14 12:44:44;;;;;;;253.30;121.20;;;;;;;;;;5054243;28;21159;-45
2023/09/14 12:47:11;;;;;;;259.43;129.37;;;;;;;;;;5057204;28;20414;-45
2023/09/14 12:49:37;;;;;;;251.80;115.70;;;;;;;;;;5058292;28;20496;-45
2023/09/14 12:52:05;;;;;;;252.77;116.90;;;;;;;;;;5046028;28;20516;-45
2023/09/14 12:54:32;;;;;;;251.67;118.03;;;;;;;;;;5054235;28;20459;-45
2023/09/14 12:56:58;;;;;;;252.37;119.27;;;;;;;;;;5054082;28;20471;-46
2023/09/14 12:59:23;;;;;;;253.37;118.27;;;;;;;;;;5059027;28;20440;-45
2023/09/14 13:01:49;;;;;;;252.43;118.00;;;;;;;;;;5060555;28;20491;-45
2023/09/14 13:04:16;;;;;;;253.03;117.47;;;;;;;;;;5054410;28;20413;-45
2023/09/14 13:06:42;;;;;;;253.50;118.30;;;;;;;;;;5054374;28;20510;-45
2023/09/14 13:09:08;;;;;;;254.37;122.63;;;;;;;;;;5053925;28;20555;-45
2023/09/14 13:11:36;;;;;;;254.73;119.73;;;;;;;;;;5057341;28;20796;-47
2023/09/14 13:14:02;;;;;;;255.17;122.00;;;;;;;;;;5058881;28;20441;-45
2023/09/14 13:16:28;;;;;;;254.10;119.90;;;;;;;;;;5047142;28;20920;-45
2023/09/14 13:18:54;;;;;;;252.77;120.93;;;;;;;;;;5061664;28;20420;-45
2023/09/14 13:21:21;;;;;;;253.77;122.17;;;;;;;;;;5052410;28;20413;-45
2023/09/14 13:23:47;;;;;;;257.90;125.37;;;;;;;;;;5057113;28;20423;-45
2023/09/14 13:26:13;;;;;;;256.53;126.60;;;;;;;;;;5053281;28;20979;-45
2023/09/14 13:28:39;;;;;;;253.07;124.00;;;;;;;;;;5053177;28;20425;-45
2023/09/14 13:31:05;;;;;;;254.60;124.77;;;;;;;;;;5053519;28;20417;-45
2023/09/14 13:33:31;;;;;;;255.43;128.20;;;;;;;;;;5061630;28;20947;-45
2023/09/14 13:36:00;;;;;;;253.67;124.63;;;;;;;;;;5053456;28;20414;-45
2023/09/14 13:38:27;;;;;;;250.87;122.73;;;;;;;;;;5056349;28;20460;-45
2023/09/14 13:40:53;;;;;;;253.93;125.40;;;;;;;;;;5058081;28;20416;-45
2023/09/14 13:43:19;;;;;;;254.60;125.47;;;;;;;;;;5057418;28;20820;-45
2023/09/14 13:45:45;;;;;;;255.23;127.73;;;;;;;;;;5056664;28;20456;-45
2023/09/14 13:48:11;;;;;;;257.37;129.33;;;;;;;;;;5060223;28;20421;-45
2023/09/14 13:50:37;;;;;;;251.23;123.80;;;;;;;;;;5053456;28;20439;-46
2023/09/14 13:53:05;;;;;;;252.07;125.93;;;;;;;;;;5056246;28;20453;-47
2023/09/14 13:55:31;;;;;;;256.37;129.83;;;;;;;;;;5056354;28;20467;-45
2023/09/14 13:57:57;;;;;;;253.17;128.20;;;;;;;;;;5058083;28;20523;-45